Time;durP1;ratioP1;P1;durP2;ratioP2;P2;SDS_P1;SDS_P2;PMS_P1;PMS_P2;Temp;Humidity;BMP_temperature;BMP_pressure;BME280_temperature;BME280_humidity;BME280_pressure;Samples;Min_cycle;Max_cycle;Signal;HPM_P1;HPM_P2
2023/12/18 00:02:10;;;;;;;22.38;13.73;;;;;;;4.18;100.00;103286.44;6126074;23;20009;-74
2023/12/18 00:04:35;;;;;;;19.05;14.57;;;;;;;4.45;100.00;103326.59;6127224;23;20006;-74
2023/12/18 00:07:01;;;;;;;24.83;14.38;;;;;;;4.47;100.00;103319.75;6127338;23;20006;-75
2023/12/18 00:09:26;;;;;;;22.88;13.93;;;;;;;4.49;100.00;103318.06;6127351;23;20086;-75
2023/12/18 00:11:51;;;;;;;21.65;14.20;;;;;;;4.51;100.00;103321.47;6127248;23;20045;-75
2023/12/18 00:14:17;;;;;;;24.75;14.60;;;;;;;4.52;100.00;103319.75;6127416;23;20002;-74
2023/12/18 00:16:42;;;;;;;24.05;14.63;;;;;;;4.34;100.00;103286.47;6127282;23;20002;-76
2023/12/18 00:19:08;;;;;;;21.88;14.57;;;;;;;4.50;100.00;103306.09;6127194;23;20001;-76
2023/12/18 00:21:33;;;;;;;21.25;14.52;;;;;;;4.55;100.00;103305.28;6126973;23;20412;-75
2023/12/18 00:23:59;;;;;;;22.85;13.65;;;;;;;4.26;100.00;103264.28;6127508;23;20006;-79
2023/12/18 00:26:24;;;;;;;23.00;15.00;;;;;;;4.51;100.00;103300.13;6127145;23;20009;-77
2023/12/18 00:28:49;;;;;;;21.48;15.55;;;;;;;4.58;100.00;103307.84;6127168;23;20329;-79
2023/12/18 00:31:15;;;;;;;19.90;13.45;;;;;;;4.55;100.00;103307.00;6127030;23;20002;-78
2023/12/18 00:33:40;;;;;;;24.15;14.70;;;;;;;4.61;100.00;103301.84;6127371;23;20392;-78
2023/12/18 00:36:07;;;;;;;22.15;13.88;;;;;;;4.47;100.00;103280.53;6126962;23;20002;-76
2023/12/18 00:38:33;;;;;;;20.38;14.45;;;;;;;4.63;100.00;103300.19;6127179;23;20077;-76
2023/12/18 00:40:58;;;;;;;24.13;15.32;;;;;;;4.58;100.00;103287.38;6126813;23;20040;-77
2023/12/18 00:43:23;;;;;;;25.35;15.15;;;;;;;4.55;100.00;103279.69;6126686;23;20407;-79
2023/12/18 00:45:49;;;;;;;24.65;16.40;;;;;;;4.58;100.00;103289.91;6126826;23;20080;-76
2023/12/18 00:48:14;;;;;;;22.75;14.80;;;;;;;4.39;100.00;103254.06;6126791;23;20096;-77
2023/12/18 00:50:39;;;;;;;23.15;14.50;;;;;;;4.65;100.00;103290.78;6126879;23;20001;-76
2023/12/18 00:53:04;;;;;;;24.65;15.18;;;;;;;4.65;100.00;103295.06;6126842;23;20006;-79
2023/12/18 00:55:30;;;;;;;20.92;14.48;;;;;;;4.58;100.00;103278.84;6127026;23;20014;-79
2023/12/18 00:57:55;;;;;;;22.48;14.95;;;;;;;4.66;100.00;103287.38;6126761;23;20012;-79
2023/12/18 01:00:21;;;;;;;23.42;15.10;;;;;;;4.67;100.00;103283.13;6126753;23;20002;-79
2023/12/18 01:02:47;;;;;;;22.20;14.77;;;;;;;4.69;100.00;103284.81;6126686;23;20009;-75
2023/12/18 01:05:13;;;;;;;24.55;15.20;;;;;;;4.64;100.00;103275.44;6125326;23;20006;-77
2023/12/18 01:07:39;;;;;;;22.80;14.52;;;;;;;4.68;100.00;103283.09;6127056;23;20026;-79
2023/12/18 01:10:05;;;;;;;20.38;14.70;;;;;;;4.67;100.00;103286.53;6126594;23;20511;-78
2023/12/18 01:12:31;;;;;;;27.45;15.38;;;;;;;4.68;100.00;103284.81;6126924;23;20010;-78
2023/12/18 01:14:56;;;;;;;19.83;14.38;;;;;;;4.52;100.00;103261.78;6125925;23;20012;-77
2023/12/18 01:17:21;;;;;;;25.10;15.27;;;;;;;4.56;100.00;103263.47;6126326;23;20017;-79
2023/12/18 01:19:47;;;;;;;23.70;15.02;;;;;;;4.39;100.00;103218.25;6126766;23;20097;-79
2023/12/18 01:22:12;;;;;;;24.33;15.45;;;;;;;4.69;100.00;103279.69;6126819;23;20002;-76
2023/12/18 01:24:37;;;;;;;19.60;14.73;;;;;;;4.57;100.00;103252.41;6126684;23;20149;-78
2023/12/18 01:27:03;;;;;;;23.35;15.13;;;;;;;4.68;100.00;103275.44;6125350;23;20017;-78
2023/12/18 01:29:28;;;;;;;22.13;14.77;;;;;;;4.67;100.00;103275.44;6126837;23;20006;-78
2023/12/18 01:31:53;;;;;;;23.92;15.80;;;;;;;4.68;100.00;103283.09;6126487;23;20006;-79
2023/12/18 01:34:19;;;;;;;21.45;15.32;;;;;;;4.68;100.00;103282.25;6123575;23;20450;-79
2023/12/18 01:36:44;;;;;;;25.67;15.60;;;;;;;4.61;100.00;103278.81;6126497;23;20085;-76
2023/12/18 01:39:09;;;;;;;20.88;13.90;;;;;;;4.63;100.00;103282.28;6126663;23;20133;-75
2023/12/18 01:41:34;;;;;;;22.83;15.13;;;;;;;4.54;100.00;103267.75;6126719;23;20133;-74
2023/12/18 01:44:00;;;;;;;22.13;15.10;;;;;;;4.61;100.00;103281.38;6126350;23;20058;-74
2023/12/18 01:46:26;;;;;;;24.02;14.93;;;;;;;4.48;100.00;103251.53;6123962;23;20459;-74
2023/12/18 01:48:52;;;;;;;23.92;15.20;;;;;;;4.60;100.00;103272.00;6126205;23;20036;-74
2023/12/18 01:51:19;;;;;;;24.00;15.82;;;;;;;4.49;100.00;103256.66;6126549;23;20024;-76
2023/12/18 01:53:47;;;;;;;24.25;15.43;;;;;;;4.69;100.00;103289.94;6126292;23;20078;-74
2023/12/18 01:56:14;;;;;;;26.00;16.60;;;;;;;4.71;100.00;103287.38;6126687;23;20053;-75
2023/12/18 01:58:42;;;;;;;24.35;16.50;;;;;;;4.56;100.00;103253.25;6126720;23;20013;-74
2023/12/18 02:01:11;;;;;;;24.27;15.57;;;;;;;4.76;100.00;103283.13;6126098;23;20160;-75
2023/12/18 02:03:38;;;;;;;23.77;16.45;;;;;;;4.76;100.00;103276.28;6126147;23;20006;-74
2023/12/18 02:06:04;;;;;;;24.40;16.75;;;;;;;4.60;100.00;103241.28;6126250;23;20297;-74
2023/12/18 02:08:32;;;;;;;25.30;16.40;;;;;;;4.64;100.00;103248.16;6126465;23;20013;-75
2023/12/18 02:10:58;;;;;;;27.33;17.50;;;;;;;4.81;100.00;103268.59;6126304;23;20006;-73
2023/12/18 02:13:23;;;;;;;26.40;16.48;;;;;;;4.76;100.00;103260.94;6125705;23;20010;-74
2023/12/18 02:15:49;;;;;;;26.77;16.80;;;;;;;4.69;100.00;103246.41;6125947;23;20009;-73
2023/12/18 02:18:14;;;;;;;26.70;17.52;;;;;;;4.86;100.00;103267.75;6125861;23;20009;-75
2023/12/18 02:20:42;;;;;;;26.85;16.85;;;;;;;4.51;100.00;103200.34;6123742;23;20010;-76
2023/12/18 02:23:09;;;;;;;24.52;16.48;;;;;;;4.63;100.00;103220.00;6125989;23;20002;-76
2023/12/18 02:25:34;;;;;;;29.27;17.85;;;;;;;4.72;100.00;103227.66;6126116;23;20089;-74
2023/12/18 02:28:01;;;;;;;26.20;15.98;;;;;;;4.90;100.00;103253.25;6125671;23;20045;-75
2023/12/18 02:30:26;;;;;;;29.20;16.30;;;;;;;4.79;100.00;103235.34;6125881;23;20107;-74
2023/12/18 02:32:52;;;;;;;27.88;17.20;;;;;;;4.86;100.00;103238.75;6125657;23;20028;-74
2023/12/18 02:35:17;;;;;;;27.55;16.85;;;;;;;4.74;100.00;103226.81;6125831;23;20006;-74
2023/12/18 02:37:43;;;;;;;27.55;17.63;;;;;;;4.87;100.00;103243.00;6125996;23;20069;-75
2023/12/18 02:40:08;;;;;;;27.17;17.52;;;;;;;4.93;100.00;103260.09;6125837;23;20021;-74
2023/12/18 02:42:34;;;;;;;26.77;16.60;;;;;;;4.83;100.00;103244.72;6125507;23;20061;-74
2023/12/18 02:45:01;;;;;;;22.83;16.38;;;;;;;4.75;100.00;103212.31;6125488;23;20021;-75
2023/12/18 02:47:27;;;;;;;24.15;17.08;;;;;;;4.85;100.00;103226.81;6123991;23;20376;-75
2023/12/18 02:49:53;;;;;;;26.38;16.83;;;;;;;4.89;100.00;103231.06;6125614;23;20345;-76
2023/12/18 02:52:19;;;;;;;24.60;16.75;;;;;;;4.89;100.00;103237.03;6125913;23;20013;-77
2023/12/18 02:54:44;;;;;;;24.42;16.25;;;;;;;4.55;100.00;103182.47;6125824;23;20373;-76
2023/12/18 02:57:09;;;;;;;27.08;16.85;;;;;;;4.89;100.00;103231.06;6125961;23;20016;-74
2023/12/18 02:59:34;;;;;;;22.73;16.20;;;;;;;4.85;100.00;103222.53;6123927;23;20433;-75
2023/12/18 03:02:00;;;;;;;22.00;16.25;;;;;;;4.83;100.00;103214.00;6125368;23;20006;-75
2023/12/18 03:04:25;;;;;;;26.45;16.77;;;;;;;4.89;100.00;103219.09;6125490;23;20037;-76
2023/12/18 03:06:51;;;;;;;22.63;16.30;;;;;;;4.80;100.00;103202.91;6125620;23;20002;-78
2023/12/18 03:09:16;;;;;;;25.00;17.20;;;;;;;4.73;100.00;103201.22;6125679;23;20006;-75
2023/12/18 03:11:43;;;;;;;26.00;15.77;;;;;;;4.87;100.00;103225.94;6125759;23;20425;-75
2023/12/18 03:14:10;;;;;;;26.70;17.27;;;;;;;4.87;100.00;103225.94;6125533;23;20041;-74
2023/12/18 03:16:36;;;;;;;27.38;16.35;;;;;;;4.87;100.00;103228.50;6123272;23;20010;-74
2023/12/18 03:19:01;;;;;;;25.27;17.52;;;;;;;4.87;100.00;103228.50;6125777;23;19997;-74
2023/12/18 03:21:27;;;;;;;23.77;16.20;;;;;;;4.90;100.00;103225.06;6125406;23;20006;-74
2023/12/18 03:23:52;;;;;;;26.95;17.08;;;;;;;4.89;100.00;103223.38;6125396;23;20149;-75
2023/12/18 03:26:17;;;;;;;31.83;17.55;;;;;;;4.79;100.00;103208.88;6125469;23;20355;-76
2023/12/18 03:28:43;;;;;;;29.27;16.27;;;;;;;4.83;100.00;103210.59;6125716;23;20009;-79
2023/12/18 03:31:10;;;;;;;27.90;18.15;;;;;;;4.85;100.00;103199.50;6125829;23;20466;-74
2023/12/18 03:33:35;;;;;;;28.20;18.15;;;;;;;4.88;100.00;103214.84;6125199;23;20010;-74
2023/12/18 03:36:01;;;;;;;24.65;17.48;;;;;;;4.86;100.00;103208.88;6125466;23;20009;-78
2023/12/18 03:38:26;;;;;;;25.77;17.40;;;;;;;4.88;100.00;103209.72;6125240;23;20436;-79
2023/12/18 03:40:51;;;;;;;27.40;17.88;;;;;;;4.96;100.00;103221.66;6127302;23;20006;-78
2023/12/18 03:43:17;;;;;;;25.38;17.45;;;;;;;4.96;100.00;103219.13;6127126;23;20010;-80
2023/12/18 03:45:42;;;;;;;29.60;18.23;;;;;;;4.93;100.00;103221.69;6127815;23;20017;-76
2023/12/18 03:48:07;;;;;;;28.83;17.63;;;;;;;4.77;100.00;103196.09;6127539;23;20404;-79
2023/12/18 03:50:32;;;;;;;29.95;18.00;;;;;;;4.92;100.00;103222.50;6125663;23;20009;-75
2023/12/18 03:52:58;;;;;;;23.20;17.50;;;;;;;4.90;100.00;103223.38;6126813;23;20085;-79
2023/12/18 03:55:23;;;;;;;29.35;18.48;;;;;;;4.93;100.00;103224.25;6127189;23;20005;-78
2023/12/18 03:57:48;;;;;;;25.73;17.67;;;;;;;4.81;100.00;103204.59;6127547;23;20029;-78
2023/12/18 04:00:14;;;;;;;26.10;17.30;;;;;;;4.83;100.00;103210.59;6127445;23;20010;-79
2023/12/18 04:02:39;;;;;;;26.30;17.63;;;;;;;4.86;100.00;103219.13;6127435;23;20060;-77
2023/12/18 04:05:05;;;;;;;31.00;18.00;;;;;;;4.94;100.00;103225.94;6127339;23;20075;-76
2023/12/18 04:07:31;;;;;;;28.25;18.52;;;;;;;4.94;100.00;103226.81;6127522;23;20002;-79
2023/12/18 04:09:56;;;;;;;29.38;19.05;;;;;;;4.95;100.00;103230.22;6127247;23;20009;-80
2023/12/18 04:12:21;;;;;;;31.77;18.65;;;;;;;4.90;100.00;103225.94;6127614;23;20028;-78
2023/12/18 04:14:46;;;;;;;29.08;19.20;;;;;;;4.95;100.00;103225.09;6126950;23;20420;-79
2023/12/18 04:17:12;;;;;;;24.83;18.25;;;;;;;4.86;100.00;103201.19;6127158;23;20010;-77
2023/12/18 04:19:37;;;;;;;29.25;18.42;;;;;;;4.97;100.00;103218.25;6126761;23;20006;-79
2023/12/18 04:22:03;;;;;;;25.15;18.73;;;;;;;4.99;100.00;103224.22;6127326;23;20324;-78
2023/12/18 04:24:28;;;;;;;29.08;19.08;;;;;;;4.97;100.00;103224.22;6126814;23;20394;-80
2023/12/18 04:26:54;;;;;;;28.60;18.48;;;;;;;4.99;100.00;103207.16;6126932;23;20006;-79
2023/12/18 04:29:20;;;;;;;27.42;18.83;;;;;;;4.99;100.00;103217.38;6127231;23;20013;-80
2023/12/18 04:31:47;;;;;;;26.40;19.42;;;;;;;4.95;100.00;103213.16;6127042;23;20013;-79
2023/12/18 04:34:12;;;;;;;27.55;18.67;;;;;;;5.00;100.00;103210.56;6126852;23;20009;-80
2023/12/18 04:36:39;;;;;;;28.63;18.92;;;;;;;4.83;100.00;103175.63;6127026;23;20002;-78
2023/12/18 04:39:04;;;;;;;30.00;19.60;;;;;;;4.94;100.00;103195.22;6126967;23;20073;-80
2023/12/18 04:41:30;;;;;;;28.85;18.90;;;;;;;4.92;100.00;103194.34;6126928;23;20044;-80
2023/12/18 04:43:55;;;;;;;30.55;19.25;;;;;;;5.00;100.00;103205.44;6126747;23;20436;-80
2023/12/18 04:46:20;;;;;;;33.75;18.83;;;;;;;5.01;100.00;103196.91;6127161;23;20009;-80
2023/12/18 04:48:46;;;;;;;30.88;19.52;;;;;;;4.86;100.00;103182.44;6125846;23;19998;-79
2023/12/18 04:51:11;;;;;;;30.13;18.95;;;;;;;4.98;100.00;103199.47;6126895;23;20012;-80
2023/12/18 04:53:36;;;;;;;29.20;17.92;;;;;;;4.90;100.00;103184.97;6126818;23;20002;-80
2023/12/18 04:56:04;;;;;;;28.23;19.88;;;;;;;4.98;100.00;103196.91;6126766;23;20413;-80
2023/12/18 04:58:30;;;;;;;29.00;19.77;;;;;;;4.99;100.00;103194.34;6126774;23;20328;-80
2023/12/18 05:00:56;;;;;;;30.05;18.35;;;;;;;4.93;100.00;103184.13;6126647;23;20002;-79
2023/12/18 05:03:22;;;;;;;28.30;18.50;;;;;;;4.99;100.00;103196.91;6126613;23;20126;-79
2023/12/18 05:05:47;;;;;;;27.30;19.85;;;;;;;5.04;100.00;103199.47;6127017;23;20097;-79
2023/12/18 05:08:12;;;;;;;27.35;18.65;;;;;;;5.01;100.00;103202.88;6126886;23;20424;-80
2023/12/18 05:10:38;;;;;;;28.60;19.10;;;;;;;5.03;100.00;103193.50;6124818;23;20084;-80
2023/12/18 05:13:03;;;;;;;28.50;19.02;;;;;;;5.04;100.00;103209.72;6126991;23;20321;-80
2023/12/18 05:15:29;;;;;;;30.67;20.13;;;;;;;5.06;100.00;103197.75;6126377;23;20014;-79
2023/12/18 05:17:54;;;;;;;30.42;18.10;;;;;;;5.05;100.00;103194.34;6126606;23;20041;-77
2023/12/18 05:20:19;;;;;;;31.88;19.80;;;;;;;5.02;100.00;103186.69;6126517;23;20006;-76
2023/12/18 05:22:45;;;;;;;27.08;18.45;;;;;;;5.07;100.00;103200.31;6126692;23;20006;-75
2023/12/18 05:25:10;;;;;;;29.48;18.77;;;;;;;5.07;100.00;103197.75;6126795;23;19997;-76
2023/12/18 05:27:36;;;;;;;28.98;18.48;;;;;;;5.08;100.00;103196.88;6126565;23;20005;-75
2023/12/18 05:30:01;;;;;;;26.63;18.42;;;;;;;5.06;100.00;103184.94;6126467;23;20324;-78
2023/12/18 05:32:27;;;;;;;29.05;19.13;;;;;;;4.92;100.00;103163.63;6126409;23;20002;-77
2023/12/18 05:34:52;;;;;;;30.35;18.58;;;;;;;5.12;100.00;103193.47;6126156;23;20006;-79
2023/12/18 05:37:18;;;;;;;30.45;18.65;;;;;;;5.13;100.00;103200.31;6126446;23;20006;-77
2023/12/18 05:39:43;;;;;;;33.08;19.48;;;;;;;5.16;100.00;103191.75;6126676;23;20325;-79
2023/12/18 05:42:08;;;;;;;29.30;17.67;;;;;;;5.18;100.00;103197.72;6126435;23;20006;-79
2023/12/18 05:44:34;;;;;;;31.15;19.92;;;;;;;5.19;100.00;103191.75;6125955;23;20460;-75
2023/12/18 05:46:59;;;;;;;26.67;18.88;;;;;;;5.19;100.00;103196.84;6125996;23;20429;-75
2023/12/18 05:49:24;;;;;;;31.75;19.77;;;;;;;5.20;100.00;103196.00;6126145;23;20010;-74
2023/12/18 05:51:50;;;;;;;34.50;19.83;;;;;;;5.21;100.00;103200.28;6126294;23;20006;-75
2023/12/18 05:54:15;;;;;;;32.95;19.83;;;;;;;5.00;100.00;103159.34;6126612;23;20026;-74
2023/12/18 05:56:40;;;;;;;27.98;19.75;;;;;;;5.14;100.00;103178.09;6126228;23;20006;-75
2023/12/18 05:59:05;;;;;;;30.58;21.05;;;;;;;5.23;100.00;103188.34;6125847;23;20017;-74
2023/12/18 06:01:31;;;;;;;37.28;21.30;;;;;;;5.13;100.00;103173.84;6125990;23;20013;-75
2023/12/18 06:03:56;;;;;;;35.03;22.50;;;;;;;5.24;100.00;103199.44;6126288;23;20416;-74
2023/12/18 06:06:21;;;;;;;33.75;21.73;;;;;;;5.20;100.00;103188.31;6126517;23;20314;-75
2023/12/18 06:08:47;;;;;;;31.95;20.75;;;;;;;5.22;100.00;103190.91;6126212;23;20072;-75
2023/12/18 06:11:15;;;;;;;29.98;20.63;;;;;;;5.19;100.00;103191.75;6126188;23;20005;-74
2023/12/18 06:13:40;;;;;;;34.63;19.13;;;;;;;5.20;100.00;103193.44;6125582;23;20405;-75
2023/12/18 06:16:06;;;;;;;30.25;19.17;;;;;;;5.19;100.00;103194.31;6126013;23;20009;-73
2023/12/18 06:18:31;;;;;;;28.20;18.80;;;;;;;5.19;100.00;103187.47;6125867;23;20104;-74
2023/12/18 06:21:02;;;;;;;31.15;19.60;;;;;;;4.88;100.00;103144.88;6126268;23;20006;-75
2023/12/18 06:23:28;;;;;;;31.88;19.95;;;;;;;4.97;100.00;103160.22;6126347;23;20006;-79
2023/12/18 06:25:53;;;;;;;32.53;21.50;;;;;;;5.18;100.00;103184.91;6125878;23;20033;-79
2023/12/18 06:28:18;;;;;;;37.20;23.40;;;;;;;5.17;100.00;103191.75;6126096;23;20013;-79
2023/12/18 06:30:44;;;;;;;36.78;24.33;;;;;;;5.17;100.00;103193.47;6126392;23;20041;-79
2023/12/18 06:33:09;;;;;;;35.50;21.88;;;;;;;5.18;100.00;103195.16;6126203;23;20010;-79
2023/12/18 06:35:34;;;;;;;28.77;19.52;;;;;;;5.18;100.00;103187.47;6125914;23;20014;-77
2023/12/18 06:38:00;;;;;;;31.98;21.15;;;;;;;5.14;100.00;103175.56;6126178;23;20421;-78
2023/12/18 06:40:25;;;;;;;32.47;20.27;;;;;;;5.18;100.00;103179.78;6125603;23;20033;-80
2023/12/18 06:42:50;;;;;;;28.45;19.00;;;;;;;5.17;100.00;103193.47;6125836;23;20006;-79
2023/12/18 06:45:15;;;;;;;32.58;18.48;;;;;;;5.19;100.00;103184.91;6123429;23;20322;-79
2023/12/18 06:47:41;;;;;;;29.60;18.77;;;;;;;5.19;100.00;103186.63;6125733;23;20451;-79
2023/12/18 06:50:06;;;;;;;32.85;20.00;;;;;;;5.06;100.00;103157.63;6123336;23;20137;-79
2023/12/18 06:52:32;;;;;;;32.95;19.83;;;;;;;5.10;100.00;103174.69;6126039;23;20009;-76
2023/12/18 06:54:57;;;;;;;30.92;18.75;;;;;;;5.23;100.00;103188.34;6125527;23;20041;-79
2023/12/18 06:57:23;;;;;;;34.35;20.20;;;;;;;5.25;100.00;103188.31;6126017;23;20010;-79
2023/12/18 06:59:48;;;;;;;33.58;18.75;;;;;;;5.25;100.00;103189.16;6125726;23;20006;-78
2023/12/18 07:02:13;;;;;;;34.65;18.85;;;;;;;5.28;100.00;103196.00;6126056;23;20012;-79
2023/12/18 07:04:39;;;;;;;31.05;19.02;;;;;;;5.26;100.00;103198.56;6125317;23;20417;-76
2023/12/18 07:07:04;;;;;;;31.25;20.00;;;;;;;5.29;100.00;103202.81;6125936;23;20013;-75
2023/12/18 07:09:29;;;;;;;32.75;19.35;;;;;;;5.29;100.00;103203.66;6125722;23;20439;-77
2023/12/18 07:11:55;;;;;;;31.55;19.77;;;;;;;5.27;100.00;103205.38;6125057;23;19998;-76
2023/12/18 07:14:20;;;;;;;29.33;18.83;;;;;;;5.29;100.00;103197.69;6125261;23;20034;-74
2023/12/18 07:16:45;;;;;;;31.65;19.70;;;;;;;5.11;100.00;103180.66;6125771;23;20036;-76
2023/12/18 07:19:11;;;;;;;39.40;19.98;;;;;;;5.33;100.00;103210.50;6125402;23;19998;-74
2023/12/18 07:21:36;;;;;;;28.35;19.02;;;;;;;5.34;100.00;103213.91;6125525;23;20005;-76
2023/12/18 07:24:02;;;;;;;29.05;19.55;;;;;;;5.35;100.00;103215.63;6124884;23;20021;-74
2023/12/18 07:26:27;;;;;;;29.88;18.48;;;;;;;5.34;100.00;103214.75;6126564;23;20077;-73
2023/12/18 07:28:52;;;;;;;29.35;19.58;;;;;;;5.34;100.00;103212.19;6125483;23;20002;-77
2023/12/18 07:31:18;;;;;;;29.98;19.95;;;;;;;5.34;100.00;103212.19;6125662;23;20025;-74
2023/12/18 07:33:44;;;;;;;32.58;18.30;;;;;;;5.19;100.00;103184.91;6125782;23;20439;-74
2023/12/18 07:36:09;;;;;;;29.48;19.17;;;;;;;5.34;100.00;103207.06;6125308;23;20409;-74
2023/12/18 07:38:35;;;;;;;31.67;18.35;;;;;;;5.35;100.00;103208.78;6123700;23;20006;-74
2023/12/18 07:41:04;;;;;;;30.35;18.63;;;;;;;5.35;100.00;103211.34;6125307;23;20006;-73
2023/12/18 07:43:30;;;;;;;31.45;19.75;;;;;;;5.36;100.00;103214.75;6125361;23;20020;-74
2023/12/18 07:45:55;;;;;;;32.35;20.42;;;;;;;5.31;100.00;103198.53;6125247;23;20077;-77
2023/12/18 07:48:24;;;;;;;32.35;19.95;;;;;;;5.34;100.00;103208.78;6125141;23;20006;-79
2023/12/18 07:50:50;;;;;;;29.70;18.70;;;;;;;5.32;100.00;103208.81;6124987;23;20009;-78
2023/12/18 07:53:16;;;;;;;32.63;19.45;;;;;;;5.15;100.00;103174.69;6125465;23;20006;-79
2023/12/18 07:55:41;;;;;;;30.27;19.30;;;;;;;5.21;100.00;103174.69;6125323;23;20336;-79
2023/12/18 07:58:07;;;;;;;31.83;20.27;;;;;;;5.19;100.00;103173.81;6125386;23;20029;-79
2023/12/18 08:00:32;;;;;;;34.70;20.17;;;;;;;5.30;100.00;103191.69;6125290;23;20002;-77
2023/12/18 08:02:59;;;;;;;32.25;19.27;;;;;;;5.35;100.00;103201.09;6125285;23;20002;-79
2023/12/18 08:05:25;;;;;;;34.40;19.67;;;;;;;5.38;100.00;103202.78;6125474;23;20041;-79
2023/12/18 08:07:50;;;;;;;37.17;20.35;;;;;;;5.21;100.00;103169.56;6125728;23;20372;-74
2023/12/18 08:10:15;;;;;;;32.58;19.23;;;;;;;5.40;100.00;103191.66;6125417;23;20006;-80
2023/12/18 08:12:41;;;;;;;30.40;19.67;;;;;;;5.44;100.00;103188.25;6125572;23;20012;-73
2023/12/18 08:15:07;;;;;;;33.58;20.20;;;;;;;5.34;100.00;103160.97;6125562;23;20058;-76
2023/12/18 08:17:41;;;;;;;36.08;20.90;;;;;;;5.47;100.00;103182.25;6125448;23;20002;-80
2023/12/18 08:20:07;;;;;;;34.80;20.30;;;;;;;5.46;100.00;103171.16;6125365;23;20002;-74
2023/12/18 08:22:32;;;;;;;30.75;19.92;;;;;;;5.61;100.00;103183.06;6125389;23;20053;-79
2023/12/18 08:24:58;;;;;;;31.83;20.30;;;;;;;5.66;100.00;103188.16;6127362;23;20368;-78
2023/12/18 08:27:23;;;;;;;35.58;20.45;;;;;;;5.70;100.00;103179.59;6126989;23;20056;-75
2023/12/18 08:29:49;;;;;;;30.90;18.42;;;;;;;5.73;100.00;103177.03;6127088;23;20009;-73
2023/12/18 08:32:14;;;;;;;30.85;18.85;;;;;;;5.70;100.00;103167.66;6127476;23;20018;-75
2023/12/18 08:34:40;;;;;;;27.88;20.08;;;;;;;5.64;100.00;103162.53;6126960;23;20042;-73
2023/12/18 08:37:06;;;;;;;35.20;19.60;;;;;;;5.64;100.00;103159.97;6126896;23;20006;-73
2023/12/18 08:39:31;;;;;;;28.85;18.73;;;;;;;5.78;100.00;103179.53;6127090;23;20037;-77
2023/12/18 08:41:57;;;;;;;30.00;19.00;;;;;;;5.80;100.00;103173.56;6127287;23;20006;-78
2023/12/18 08:44:22;;;;;;;34.63;19.05;;;;;;;5.83;100.00;103177.81;6125142;23;20017;-78
2023/12/18 08:46:47;;;;;;;30.67;20.25;;;;;;;5.80;100.00;103160.75;6126756;23;20328;-70
2023/12/18 08:49:13;;;;;;;35.92;20.40;;;;;;;5.88;100.00;103169.22;6126742;23;20005;-80
2023/12/18 08:51:38;;;;;;;33.28;19.58;;;;;;;5.67;100.00;103134.31;6126345;23;20010;-75
2023/12/18 08:54:04;;;;;;;33.67;19.42;;;;;;;5.90;100.00;103162.44;6126828;23;20041;-75
2023/12/18 08:56:31;;;;;;;30.77;19.35;;;;;;;5.97;100.00;103178.63;6127098;23;20002;-79
2023/12/18 08:58:56;;;;;;;34.20;20.00;;;;;;;5.99;100.00;103176.88;6126572;23;20412;-72
2023/12/18 09:01:22;;;;;;;32.65;18.98;;;;;;;5.88;100.00;103164.09;6126601;23;20009;-74
2023/12/18 09:03:47;;;;;;;28.67;17.92;;;;;;;5.98;100.00;103173.47;6126718;23;19998;-71
2023/12/18 09:06:12;;;;;;;26.00;18.05;;;;;;;6.03;100.00;103169.19;6124283;23;20020;-74
2023/12/18 09:08:41;;;;;;;29.40;18.33;;;;;;;6.06;100.00;103173.44;6126732;23;20002;-71
2023/12/18 09:11:07;;;;;;;29.55;18.55;;;;;;;6.10;100.00;103161.47;6149063;23;20030;-72
2023/12/18 09:13:37;;;;;;;34.15;19.90;;;;;;;6.17;100.00;103174.19;6126556;23;20006;-76
2023/12/18 09:16:06;;;;;;;28.67;18.05;;;;;;;6.21;100.00;103167.34;6126748;23;20013;-74
2023/12/18 09:18:32;;;;;;;27.50;18.88;;;;;;;6.31;100.00;103161.28;6126667;23;20171;-74
2023/12/18 09:20:57;;;;;;;27.63;17.15;;;;;;;6.32;100.00;103161.28;6126486;23;20017;-79
2023/12/18 09:23:23;;;;;;;27.65;19.15;;;;;;;6.34;100.00;103171.53;6124474;23;20006;-76
2023/12/18 09:25:49;;;;;;;26.70;18.27;;;;;;;6.31;100.00;103166.44;6126673;23;20057;-80
2023/12/18 09:28:14;;;;;;;29.50;17.33;;;;;;;6.31;100.00;103169.00;6126307;23;20241;-81
2023/12/18 09:30:40;;;;;;;30.33;18.85;;;;;;;6.15;100.00;103154.56;6126559;23;20005;-78
2023/12/18 09:33:06;;;;;;;30.50;18.08;;;;;;;6.26;100.00;103173.28;6126407;23;20006;-77
2023/12/18 09:35:31;;;;;;;27.98;18.00;;;;;;;6.29;100.00;103174.13;6125667;23;20153;-75
2023/12/18 09:37:56;;;;;;;27.83;17.52;;;;;;;6.28;100.00;103174.13;6126206;23;20310;-75
2023/12/18 09:40:23;;;;;;;29.35;18.15;;;;;;;6.22;100.00;103172.47;6126286;23;20369;-76
2023/12/18 09:42:53;;;;;;;30.25;18.92;;;;;;;6.02;100.00;103146.97;6125965;23;20380;-76
2023/12/18 09:45:22;;;;;;;28.65;17.48;;;;;;;6.15;100.00;103170.81;6126284;23;20419;-73
2023/12/18 09:47:48;;;;;;;26.83;17.75;;;;;;;6.07;100.00;103157.19;6126416;23;20365;-72
2023/12/18 09:50:14;;;;;;;31.55;19.83;;;;;;;6.18;100.00;103169.94;6126144;23;20006;-72
2023/12/18 09:52:45;;;;;;;26.80;17.48;;;;;;;6.18;100.00;103169.94;6126599;23;20747;-73
2023/12/18 09:55:11;;;;;;;29.38;18.40;;;;;;;6.16;100.00;103172.50;6126035;23;20010;-71
2023/12/18 09:57:37;;;;;;;29.08;18.35;;;;;;;6.13;100.00;103169.13;6125993;23;20033;-72
2023/12/18 10:00:03;;;;;;;27.00;17.67;;;;;;;6.11;100.00;103160.59;6126298;23;19998;-72
2023/12/18 10:02:30;;;;;;;29.52;18.50;;;;;;;6.25;100.00;103164.75;6124375;23;20431;-72
2023/12/18 10:04:55;;;;;;;30.60;19.67;;;;;;;6.27;100.00;103155.31;6126035;23;20416;-72
2023/12/18 10:07:20;;;;;;;28.83;18.05;;;;;;;6.30;100.00;103163.00;6125976;23;20016;-71
2023/12/18 10:09:48;;;;;;;28.77;18.17;;;;;;;6.22;100.00;103153.66;6126593;23;20014;-71
2023/12/18 10:12:17;;;;;;;30.35;18.00;;;;;;;6.15;100.00;103136.59;6125943;23;20002;-72
2023/12/18 10:14:42;;;;;;;33.22;18.85;;;;;;;6.06;100.00;103129.81;6124653;23;20010;-73
2023/12/18 10:17:08;;;;;;;29.48;18.70;;;;;;;6.28;100.00;103157.00;6125730;23;20006;-72
2023/12/18 10:19:33;;;;;;;29.17;17.98;;;;;;;6.23;100.00;103127.13;6125801;23;20002;-72
2023/12/18 10:21:59;;;;;;;31.77;18.80;;;;;;;6.35;100.00;103147.56;6124253;23;20438;-73
2023/12/18 10:24:25;;;;;;;30.10;18.42;;;;;;;6.43;100.00;103152.63;6125996;23;20073;-72
2023/12/18 10:26:51;;;;;;;29.33;17.88;;;;;;;6.13;100.00;103113.53;6125953;23;20012;-72
2023/12/18 10:29:17;;;;;;;30.35;18.30;;;;;;;6.28;100.00;103133.91;6126153;23;20081;-72
2023/12/18 10:31:43;;;;;;;34.53;18.88;;;;;;;6.33;100.00;103152.72;6126074;23;20010;-70
2023/12/18 10:34:09;;;;;;;31.70;18.85;;;;;;;6.20;100.00;103124.63;6125989;23;20077;-72
2023/12/18 10:36:35;;;;;;;35.67;18.77;;;;;;;6.36;100.00;103143.28;6125854;23;20037;-74
2023/12/18 10:39:02;;;;;;;33.08;18.63;;;;;;;6.45;100.00;103136.34;6124374;23;20016;-73
2023/12/18 10:41:33;;;;;;;28.90;19.17;;;;;;;6.31;100.00;103115.09;6126022;23;20365;-73
2023/12/18 10:43:59;;;;;;;30.95;19.17;;;;;;;6.49;100.00;103130.34;6123381;23;20080;-73
2023/12/18 10:46:26;;;;;;;33.38;20.00;;;;;;;6.37;100.00;103102.19;6126110;23;20369;-78
2023/12/18 10:48:53;;;;;;;29.85;19.40;;;;;;;6.49;100.00;103116.63;6125775;23;20080;-74
2023/12/18 10:51:22;;;;;;;30.70;19.58;;;;;;;6.42;100.00;103089.34;6125861;23;20006;-74
2023/12/18 10:53:51;;;;;;;33.47;18.63;;;;;;;6.53;100.00;103119.16;6125391;23;19997;-72
2023/12/18 10:56:21;;;;;;;30.08;19.05;;;;;;;6.56;100.00;103116.56;6125736;23;20443;-72
2023/12/18 10:58:49;;;;;;;29.42;19.23;;;;;;;6.54;100.00;103102.91;6124222;23;20002;-73
2023/12/18 11:01:16;;;;;;;28.23;18.63;;;;;;;6.62;100.00;103102.84;6125925;23;20332;-73
2023/12/18 11:03:43;;;;;;;28.95;17.95;;;;;;;6.64;100.00;103106.22;6125794;23;20010;-75